sensor_id;sensor_type;location;lat;lon;timestamp;temperature;humidity
9537;DHT22;4807;48.024;11.726;2022-07-10T00:02:29;16.20;99.90
9537;DHT22;4807;48.024;11.726;2022-07-10T00:05:39;16.20;99.90
9537;DHT22;4807;48.024;11.726;2022-07-10T00:08:47;16.10;99.90
9537;DHT22;4807;48.024;11.726;2022-07-10T00:11:56;16.20;99.90
9537;DHT22;4807;48.024;11.726;2022-07-10T00:15:05;16.10;99.90
9537;DHT22;4807;48.024;11.726;2022-07-10T00:18:15;16.10;99.90
9537;DHT22;4807;48.024;11.726;2022-07-10T00:21:24;16.20;99.90
9537;DHT22;4807;48.024;11.726;2022-07-10T00:24:33;16.20;99.90
9537;DHT22;4807;48.024;11.726;2022-07-10T00:27:41;16.10;99.90
9537;DHT22;4807;48.024;11.726;2022-07-10T00:30:50;17.20;99.90
9537;DHT22;4807;48.024;11.726;2022-07-10T00:33:58;16.10;99.90
9537;DHT22;4807;48.024;11.726;2022-07-10T00:37:08;16.10;99.90
9537;DHT22;4807;48.024;11.726;2022-07-10T00:40:16;16.10;99.90
9537;DHT22;4807;48.024;11.726;2022-07-10T00:43:25;16.10;99.90
9537;DHT22;4807;48.024;11.726;2022-07-10T00:46:33;15.90;99.90
9537;DHT22;4807;48.024;11.726;2022-07-10T00:49:42;15.90;99.90
9537;DHT22;4807;48.024;11.726;2022-07-10T00:52:52;15.90;99.90
9537;DHT22;4807;48.024;11.726;2022-07-10T00:56:01;15.80;99.90
9537;DHT22;4807;48.024;11.726;2022-07-10T00:59:10;15.70;99.90
9537;DHT22;4807;48.024;11.726;2022-07-10T01:02:18;15.50;99.90
9537;DHT22;4807;48.024;11.726;2022-07-10T01:05:27;15.60;99.90
9537;DHT22;4807;48.024;11.726;2022-07-10T01:08:37;15.50;99.90
9537;DHT22;4807;48.024;11.726;2022-07-10T01:11:46;15.40;99.90
9537;DHT22;4807;48.024;11.726;2022-07-10T01:14:55;15.30;99.90
9537;DHT22;4807;48.024;11.726;2022-07-10T01:18:04;15.40;99.90
9537;DHT22;4807;48.024;11.726;2022-07-10T01:21:27;15.20;99.90
9537;DHT22;4807;48.024;11.726;2022-07-10T01:24:36;15.10;99.90
9537;DHT22;4807;48.024;11.726;2022-07-10T01:27:44;15.10;99.90
9537;DHT22;4807;48.024;11.726;2022-07-10T01:30:54;15.00;99.90
9537;DHT22;4807;48.024;11.726;2022-07-10T01:34:06;15.00;99.90
9537;DHT22;4807;48.024;11.726;2022-07-10T01:37:17;15.00;99.90
9537;DHT22;4807;48.024;11.726;2022-07-10T01:40:25;15.00;99.90
9537;DHT22;4807;48.024;11.726;2022-07-10T01:43:34;15.00;99.90
9537;DHT22;4807;48.024;11.726;2022-07-10T01:46:44;15.00;99.90
9537;DHT22;4807;48.024;11.726;2022-07-10T01:49:52;14.90;99.90
9537;DHT22;4807;48.024;11.726;2022-07-10T01:53:02;15.00;99.90
9537;DHT22;4807;48.024;11.726;2022-07-10T01:56:13;14.90;99.90
9537;DHT22;4807;48.024;11.726;2022-07-10T01:59:23;14.80;99.90
9537;DHT22;4807;48.024;11.726;2022-07-10T02:02:31;14.80;99.90
9537;DHT22;4807;48.024;11.726;2022-07-10T02:05:39;14.70;99.90
9537;DHT22;4807;48.024;11.726;2022-07-10T02:08:48;14.70;99.90
9537;DHT22;4807;48.024;11.726;2022-07-10T02:11:56;14.60;99.90
9537;DHT22;4807;48.024;11.726;2022-07-10T02:15:06;14.70;99.90
9537;DHT22;4807;48.024;11.726;2022-07-10T02:18:15;14.70;99.90
9537;DHT22;4807;48.024;11.726;2022-07-10T02:21:23;14.70;99.90
9537;DHT22;4807;48.024;11.726;2022-07-10T02:24:33;14.70;99.90
9537;DHT22;4807;48.024;11.726;2022-07-10T02:27:41;14.70;99.90
9537;DHT22;4807;48.024;11.726;2022-07-10T02:30:49;14.70;99.90
9537;DHT22;4807;48.024;11.726;2022-07-10T02:33:57;14.70;99.90
9537;DHT22;4807;48.024;11.726;2022-07-10T02:37:05;14.70;99.90
9537;DHT22;4807;48.024;11.726;2022-07-10T02:40:15;14.60;99.90
9537;DHT22;4807;48.024;11.726;2022-07-10T02:43:23;14.70;99.90
9537;DHT22;4807;48.024;11.726;2022-07-10T02:46:31;14.70;99.90
9537;DHT22;4807;48.024;11.726;2022-07-10T02:49:40;14.70;99.90
9537;DHT22;4807;48.024;11.726;2022-07-10T02:52:48;14.70;99.90
9537;DHT22;4807;48.024;11.726;2022-07-10T02:55:58;14.80;99.90
9537;DHT22;4807;48.024;11.726;2022-07-10T02:59:44;14.80;99.90
9537;DHT22;4807;48.024;11.726;2022-07-10T03:02:53;14.80;99.90
9537;DHT22;4807;48.024;11.726;2022-07-10T03:06:02;14.70;99.90
9537;DHT22;4807;48.024;11.726;2022-07-10T03:09:10;14.70;99.90
9537;DHT22;4807;48.024;11.726;2022-07-10T03:12:19;14.70;99.90
9537;DHT22;4807;48.024;11.726;2022-07-10T03:15:28;14.70;99.90
9537;DHT22;4807;48.024;11.726;2022-07-10T03:18:36;14.70;99.90
9537;DHT22;4807;48.024;11.726;2022-07-10T03:21:45;14.70;99.90
9537;DHT22;4807;48.024;11.726;2022-07-10T03:24:53;14.70;99.90
9537;DHT22;4807;48.024;11.726;2022-07-10T03:28:03;14.70;99.90
9537;DHT22;4807;48.024;11.726;2022-07-10T03:31:11;14.70;99.90
9537;DHT22;4807;48.024;11.726;2022-07-10T03:34:20;14.70;99.90
9537;DHT22;4807;48.024;11.726;2022-07-10T03:37:28;14.70;99.90
9537;DHT22;4807;48.024;11.726;2022-07-10T03:40:36;14.60;99.90
9537;DHT22;4807;48.024;11.726;2022-07-10T03:43:46;14.50;99.90
9537;DHT22;4807;48.024;11.726;2022-07-10T03:46:54;14.60;99.90
9537;DHT22;4807;48.024;11.726;2022-07-10T03:50:03;14.60;99.90
9537;DHT22;4807;48.024;11.726;2022-07-10T03:53:12;14.60;99.90
9537;DHT22;4807;48.024;11.726;2022-07-10T03:56:20;14.60;99.90
9537;DHT22;4807;48.024;11.726;2022-07-10T03:59:47;14.70;99.90
9537;DHT22;4807;48.024;11.726;2022-07-10T04:02:56;14.70;99.90
9537;DHT22;4807;48.024;11.726;2022-07-10T04:06:05;14.80;99.90
9537;DHT22;4807;48.024;11.726;2022-07-10T04:09:13;14.80;99.90
9537;DHT22;4807;48.024;11.726;2022-07-10T04:12:21;14.90;99.90
9537;DHT22;4807;48.024;11.726;2022-07-10T04:15:31;14.90;99.90
9537;DHT22;4807;48.024;11.726;2022-07-10T04:18:39;15.00;99.90
9537;DHT22;4807;48.024;11.726;2022-07-10T04:21:48;15.00;99.90
9537;DHT22;4807;48.024;11.726;2022-07-10T04:24:57;15.10;99.90
9537;DHT22;4807;48.024;11.726;2022-07-10T04:28:05;15.10;99.90
9537;DHT22;4807;48.024;11.726;2022-07-10T04:31:15;15.20;99.90
9537;DHT22;4807;48.024;11.726;2022-07-10T04:34:23;15.20;99.90
9537;DHT22;4807;48.024;11.726;2022-07-10T04:37:31;15.10;99.90
9537;DHT22;4807;48.024;11.726;2022-07-10T04:40:41;15.20;99.90
9537;DHT22;4807;48.024;11.726;2022-07-10T04:43:49;15.30;99.90
9537;DHT22;4807;48.024;11.726;2022-07-10T04:46:59;15.40;99.90
9537;DHT22;4807;48.024;11.726;2022-07-10T04:50:09;15.50;99.90
9537;DHT22;4807;48.024;11.726;2022-07-10T04:53:17;15.50;99.90
9537;DHT22;4807;48.024;11.726;2022-07-10T04:56:25;15.40;99.90
9537;DHT22;4807;48.024;11.726;2022-07-10T04:59:33;15.40;99.90
9537;DHT22;4807;48.024;11.726;2022-07-10T05:02:43;15.40;99.90
9537;DHT22;4807;48.024;11.726;2022-07-10T05:05:51;15.40;99.90
9537;DHT22;4807;48.024;11.726;2022-07-10T05:08:59;15.40;99.90
9537;DHT22;4807;48.024;11.726;2022-07-10T05:12:08;15.40;99.90
9537;DHT22;4807;48.024;11.726;2022-07-10T05:15:16;15.50;99.90
9537;DHT22;4807;48.024;11.726;2022-07-10T05:18:25;15.60;99.90
9537;DHT22;4807;48.024;11.726;2022-07-10T05:21:34;15.60;99.90
9537;DHT22;4807;48.024;11.726;2022-07-10T05:24:42;15.50;99.90
9537;DHT22;4807;48.024;11.726;2022-07-10T05:27:50;15.60;99.90
9537;DHT22;4807;48.024;11.726;2022-07-10T05:30:59;15.60;99.90
9537;DHT22;4807;48.024;11.726;2022-07-10T05:34:09;15.50;99.90
9537;DHT22;4807;48.024;11.726;2022-07-10T05:37:17;15.40;99.90
9537;DHT22;4807;48.024;11.726;2022-07-10T05:40:25;15.20;99.90
9537;DHT22;4807;48.024;11.726;2022-07-10T05:43:34;15.20;99.90
9537;DHT22;4807;48.024;11.726;2022-07-10T05:46:43;15.30;99.90
9537;DHT22;4807;48.024;11.726;2022-07-10T05:49:52;15.50;99.90
9537;DHT22;4807;48.024;11.726;2022-07-10T05:53:01;15.30;99.90
9537;DHT22;4807;48.024;11.726;2022-07-10T05:56:09;15.20;99.90
9537;DHT22;4807;48.024;11.726;2022-07-10T05:59:18;15.20;99.90
9537;DHT22;4807;48.024;11.726;2022-07-10T06:02:26;15.40;99.90
9537;DHT22;4807;48.024;11.726;2022-07-10T06:05:36;15.50;99.90
9537;DHT22;4807;48.024;11.726;2022-07-10T06:08:45;15.30;99.90
9537;DHT22;4807;48.024;11.726;2022-07-10T06:11:53;15.20;99.90
9537;DHT22;4807;48.024;11.726;2022-07-10T06:15:02;15.10;99.90
9537;DHT22;4807;48.024;11.726;2022-07-10T06:18:11;15.20;99.90
9537;DHT22;4807;48.024;11.726;2022-07-10T06:21:21;15.30;99.90
9537;DHT22;4807;48.024;11.726;2022-07-10T06:24:30;15.40;99.90
9537;DHT22;4807;48.024;11.726;2022-07-10T06:27:40;15.40;99.90
9537;DHT22;4807;48.024;11.726;2022-07-10T06:34:37;15.80;99.90
9537;DHT22;4807;48.024;11.726;2022-07-10T06:37:47;16.00;99.90
9537;DHT22;4807;48.024;11.726;2022-07-10T06:40:56;16.30;99.90
9537;DHT22;4807;48.024;11.726;2022-07-10T06:44:06;16.20;99.90
9537;DHT22;4807;48.024;11.726;2022-07-10T06:47:16;16.70;99.90
9537;DHT22;4807;48.024;11.726;2022-07-10T06:50:44;16.10;99.90
9537;DHT22;4807;48.024;11.726;2022-07-10T06:53:55;16.00;99.90
9537;DHT22;4807;48.024;11.726;2022-07-10T06:57:05;16.50;99.90
9537;DHT22;4807;48.024;11.726;2022-07-10T07:00:15;17.10;99.90
9537;DHT22;4807;48.024;11.726;2022-07-10T07:03:23;17.90;99.90
9537;DHT22;4807;48.024;11.726;2022-07-10T07:09:41;17.50;99.90
9537;DHT22;4807;48.024;11.726;2022-07-10T07:12:50;17.70;99.90
9537;DHT22;4807;48.024;11.726;2022-07-10T07:16:03;18.10;99.90
9537;DHT22;4807;48.024;11.726;2022-07-10T07:20:43;18.00;99.90
9537;DHT22;4807;48.024;11.726;2022-07-10T07:24:32;17.60;99.90
9537;DHT22;4807;48.024;11.726;2022-07-10T07:28:03;17.30;99.90
9537;DHT22;4807;48.024;11.726;2022-07-10T07:32:39;16.70;99.90
9537;DHT22;4807;48.024;11.726;2022-07-10T07:35:55;16.80;99.90
9537;DHT22;4807;48.024;11.726;2022-07-10T07:39:04;16.30;99.90
9537;DHT22;4807;48.024;11.726;2022-07-10T07:42:12;16.00;99.90
9537;DHT22;4807;48.024;11.726;2022-07-10T07:45:23;16.20;99.90
9537;DHT22;4807;48.024;11.726;2022-07-10T07:48:32;16.70;99.90
9537;DHT22;4807;48.024;11.726;2022-07-10T07:51:41;17.00;99.90
9537;DHT22;4807;48.024;11.726;2022-07-10T07:54:49;16.40;99.90
9537;DHT22;4807;48.024;11.726;2022-07-10T07:57:58;16.70;99.90
9537;DHT22;4807;48.024;11.726;2022-07-10T08:01:08;17.90;99.90
9537;DHT22;4807;48.024;11.726;2022-07-10T08:04:17;17.60;99.90
9537;DHT22;4807;48.024;11.726;2022-07-10T08:07:33;16.80;99.90
9537;DHT22;4807;48.024;11.726;2022-07-10T08:10:42;16.60;99.90
9537;DHT22;4807;48.024;11.726;2022-07-10T08:13:51;15.90;99.90
9537;DHT22;4807;48.024;11.726;2022-07-10T08:17:01;15.60;99.90
9537;DHT22;4807;48.024;11.726;2022-07-10T08:20:12;15.70;99.90
9537;DHT22;4807;48.024;11.726;2022-07-10T08:23:20;16.60;99.90
9537;DHT22;4807;48.024;11.726;2022-07-10T08:26:29;16.40;99.90
9537;DHT22;4807;48.024;11.726;2022-07-10T08:29:47;16.20;99.90
9537;DHT22;4807;48.024;11.726;2022-07-10T08:33:03;16.70;99.90
9537;DHT22;4807;48.024;11.726;2022-07-10T08:36:20;18.50;99.90
9537;DHT22;4807;48.024;11.726;2022-07-10T08:39:50;18.80;98.60
9537;DHT22;4807;48.024;11.726;2022-07-10T08:43:03;17.80;99.90
9537;DHT22;4807;48.024;11.726;2022-07-10T08:46:13;17.60;99.90
9537;DHT22;4807;48.024;11.726;2022-07-10T08:49:27;18.10;99.90
9537;DHT22;4807;48.024;11.726;2022-07-10T08:52:43;18.60;97.30
9537;DHT22;4807;48.024;11.726;2022-07-10T08:55:58;17.90;96.70
9537;DHT22;4807;48.024;11.726;2022-07-10T08:59:08;17.50;99.20
9537;DHT22;4807;48.024;11.726;2022-07-10T09:02:16;17.70;98.90
9537;DHT22;4807;48.024;11.726;2022-07-10T09:05:26;18.90;95.40
9537;DHT22;4807;48.024;11.726;2022-07-10T09:08:35;18.60;94.20
9537;DHT22;4807;48.024;11.726;2022-07-10T09:11:44;18.90;95.70
9537;DHT22;4807;48.024;11.726;2022-07-10T09:14:53;19.20;95.40
9537;DHT22;4807;48.024;11.726;2022-07-10T09:18:03;19.60;94.70
9537;DHT22;4807;48.024;11.726;2022-07-10T09:21:15;20.40;93.00
9537;DHT22;4807;48.024;11.726;2022-07-10T09:24:24;19.20;94.00
9537;DHT22;4807;48.024;11.726;2022-07-10T09:27:32;18.40;94.80
9537;DHT22;4807;48.024;11.726;2022-07-10T09:30:41;17.90;96.70
9537;DHT22;4807;48.024;11.726;2022-07-10T09:33:49;17.90;97.20
9537;DHT22;4807;48.024;11.726;2022-07-10T09:37:19;18.50;95.20
9537;DHT22;4807;48.024;11.726;2022-07-10T09:40:28;18.30;93.70
9537;DHT22;4807;48.024;11.726;2022-07-10T09:43:43;17.70;95.20
9537;DHT22;4807;48.024;11.726;2022-07-10T09:46:52;17.60;95.40
9537;DHT22;4807;48.024;11.726;2022-07-10T09:50:00;17.30;94.80
9537;DHT22;4807;48.024;11.726;2022-07-10T09:53:11;17.10;95.60
9537;DHT22;4807;48.024;11.726;2022-07-10T09:56:21;17.50;96.90
9537;DHT22;4807;48.024;11.726;2022-07-10T09:59:32;19.60;94.80
9537;DHT22;4807;48.024;11.726;2022-07-10T10:02:40;19.50;89.70
9537;DHT22;4807;48.024;11.726;2022-07-10T10:05:53;19.10;92.40
9537;DHT22;4807;48.024;11.726;2022-07-10T10:09:07;19.10;92.00
9537;DHT22;4807;48.024;11.726;2022-07-10T10:12:30;17.80;92.20
9537;DHT22;4807;48.024;11.726;2022-07-10T10:15:44;17.80;93.70
9537;DHT22;4807;48.024;11.726;2022-07-10T10:18:56;18.30;92.50
9537;DHT22;4807;48.024;11.726;2022-07-10T10:22:23;18.50;91.70
9537;DHT22;4807;48.024;11.726;2022-07-10T10:25:35;18.00;92.20
9537;DHT22;4807;48.024;11.726;2022-07-10T10:28:46;18.70;92.90
9537;DHT22;4807;48.024;11.726;2022-07-10T10:31:54;19.80;87.00
9537;DHT22;4807;48.024;11.726;2022-07-10T10:35:04;19.40;88.40
9537;DHT22;4807;48.024;11.726;2022-07-10T10:38:16;18.70;88.70
9537;DHT22;4807;48.024;11.726;2022-07-10T10:41:27;17.60;90.50
9537;DHT22;4807;48.024;11.726;2022-07-10T10:44:37;17.60;91.80
9537;DHT22;4807;48.024;11.726;2022-07-10T10:48:01;18.20;91.20
9537;DHT22;4807;48.024;11.726;2022-07-10T10:51:57;18.40;88.00
9537;DHT22;4807;48.024;11.726;2022-07-10T10:55:10;18.40;90.00
9537;DHT22;4807;48.024;11.726;2022-07-10T10:58:43;18.20;87.40
9537;DHT22;4807;48.024;11.726;2022-07-10T11:02:24;18.30;90.50
9537;DHT22;4807;48.024;11.726;2022-07-10T11:05:40;18.40;86.90
9537;DHT22;4807;48.024;11.726;2022-07-10T11:08:50;18.80;90.20
9537;DHT22;4807;48.024;11.726;2022-07-10T11:12:01;18.90;86.80
9537;DHT22;4807;48.024;11.726;2022-07-10T11:15:15;18.80;86.50
9537;DHT22;4807;48.024;11.726;2022-07-10T11:18:24;18.80;89.20
9537;DHT22;4807;48.024;11.726;2022-07-10T11:21:45;19.00;88.70
9537;DHT22;4807;48.024;11.726;2022-07-10T11:25:03;19.10;86.60
9537;DHT22;4807;48.024;11.726;2022-07-10T11:28:22;19.10;83.20
9537;DHT22;4807;48.024;11.726;2022-07-10T11:31:39;18.80;86.50
9537;DHT22;4807;48.024;11.726;2022-07-10T11:34:52;18.50;85.40
9537;DHT22;4807;48.024;11.726;2022-07-10T11:38:03;18.80;85.90
9537;DHT22;4807;48.024;11.726;2022-07-10T11:41:18;19.00;89.30
9537;DHT22;4807;48.024;11.726;2022-07-10T11:44:31;18.80;90.40
9537;DHT22;4807;48.024;11.726;2022-07-10T11:47:43;19.00;87.50
9537;DHT22;4807;48.024;11.726;2022-07-10T11:50:52;19.10;90.10
9537;DHT22;4807;48.024;11.726;2022-07-10T11:54:02;19.30;87.60
9537;DHT22;4807;48.024;11.726;2022-07-10T11:57:12;19.60;90.00
9537;DHT22;4807;48.024;11.726;2022-07-10T12:00:22;20.20;85.80
9537;DHT22;4807;48.024;11.726;2022-07-10T12:03:33;19.60;83.70
9537;DHT22;4807;48.024;11.726;2022-07-10T12:06:44;18.80;86.30
9537;DHT22;4807;48.024;11.726;2022-07-10T12:09:54;18.60;87.10
9537;DHT22;4807;48.024;11.726;2022-07-10T12:13:07;18.70;86.20
9537;DHT22;4807;48.024;11.726;2022-07-10T12:16:18;18.90;87.30
9537;DHT22;4807;48.024;11.726;2022-07-10T12:19:29;19.30;83.30
9537;DHT22;4807;48.024;11.726;2022-07-10T12:22:40;19.30;85.60
9537;DHT22;4807;48.024;11.726;2022-07-10T12:25:58;19.50;81.90
9537;DHT22;4807;48.024;11.726;2022-07-10T12:29:18;20.00;87.40
9537;DHT22;4807;48.024;11.726;2022-07-10T12:32:31;20.20;82.00
9537;DHT22;4807;48.024;11.726;2022-07-10T12:35:53;19.30;81.70
9537;DHT22;4807;48.024;11.726;2022-07-10T12:39:03;18.80;85.40
9537;DHT22;4807;48.024;11.726;2022-07-10T12:42:11;19.00;85.30
9537;DHT22;4807;48.024;11.726;2022-07-10T12:45:21;19.10;84.80
9537;DHT22;4807;48.024;11.726;2022-07-10T12:48:29;19.10;83.50
9537;DHT22;4807;48.024;11.726;2022-07-10T12:51:45;19.30;84.00
9537;DHT22;4807;48.024;11.726;2022-07-10T12:55:16;19.40;83.40
9537;DHT22;4807;48.024;11.726;2022-07-10T12:58:26;19.30;82.80
9537;DHT22;4807;48.024;11.726;2022-07-10T13:01:44;19.30;82.10
9537;DHT22;4807;48.024;11.726;2022-07-10T13:04:57;19.10;84.70
9537;DHT22;4807;48.024;11.726;2022-07-10T13:08:12;19.30;83.50
9537;DHT22;4807;48.024;11.726;2022-07-10T13:11:22;19.70;84.30
9537;DHT22;4807;48.024;11.726;2022-07-10T13:14:31;19.50;79.60
9537;DHT22;4807;48.024;11.726;2022-07-10T13:17:43;19.40;81.80
9537;DHT22;4807;48.024;11.726;2022-07-10T13:20:53;19.80;80.90
9537;DHT22;4807;48.024;11.726;2022-07-10T13:24:09;19.80;79.50
9537;DHT22;4807;48.024;11.726;2022-07-10T13:27:17;19.70;79.90
9537;DHT22;4807;48.024;11.726;2022-07-10T13:30:27;19.50;83.80
9537;DHT22;4807;48.024;11.726;2022-07-10T13:33:36;19.30;80.70
9537;DHT22;4807;48.024;11.726;2022-07-10T13:36:45;19.10;82.00
9537;DHT22;4807;48.024;11.726;2022-07-10T13:40:11;19.40;82.30
9537;DHT22;4807;48.024;11.726;2022-07-10T13:43:29;19.90;78.10
9537;DHT22;4807;48.024;11.726;2022-07-10T13:46:43;19.60;78.00
9537;DHT22;4807;48.024;11.726;2022-07-10T13:49:52;19.60;82.10
9537;DHT22;4807;48.024;11.726;2022-07-10T13:53:00;19.80;80.20
9537;DHT22;4807;48.024;11.726;2022-07-10T13:56:10;19.90;78.70
9537;DHT22;4807;48.024;11.726;2022-07-10T13:59:23;19.80;79.30
9537;DHT22;4807;48.024;11.726;2022-07-10T14:02:31;19.80;80.50
9537;DHT22;4807;48.024;11.726;2022-07-10T14:05:40;19.50;78.10
9537;DHT22;4807;48.024;11.726;2022-07-10T14:08:49;19.10;77.60
9537;DHT22;4807;48.024;11.726;2022-07-10T14:11:59;19.10;81.80
9537;DHT22;4807;48.024;11.726;2022-07-10T14:15:08;19.30;79.50
9537;DHT22;4807;48.024;11.726;2022-07-10T14:18:17;19.50;80.60
9537;DHT22;4807;48.024;11.726;2022-07-10T14:21:43;19.70;78.70
9537;DHT22;4807;48.024;11.726;2022-07-10T14:25:05;18.50;77.90
9537;DHT22;4807;48.024;11.726;2022-07-10T14:28:17;19.70;76.60
9537;DHT22;4807;48.024;11.726;2022-07-10T14:31:25;19.20;75.60
9537;DHT22;4807;48.024;11.726;2022-07-10T14:34:34;19.20;78.20
9537;DHT22;4807;48.024;11.726;2022-07-10T14:37:42;19.70;79.00
9537;DHT22;4807;48.024;11.726;2022-07-10T14:40:55;19.80;80.90
9537;DHT22;4807;48.024;11.726;2022-07-10T14:44:05;19.60;75.90
9537;DHT22;4807;48.024;11.726;2022-07-10T14:47:14;19.60;77.20
9537;DHT22;4807;48.024;11.726;2022-07-10T14:50:23;19.40;75.90
9537;DHT22;4807;48.024;11.726;2022-07-10T14:53:32;19.50;76.00
9537;DHT22;4807;48.024;11.726;2022-07-10T14:56:42;19.20;75.50
9537;DHT22;4807;48.024;11.726;2022-07-10T14:59:54;19.20;75.20
9537;DHT22;4807;48.024;11.726;2022-07-10T15:03:05;19.40;77.60
9537;DHT22;4807;48.024;11.726;2022-07-10T15:06:14;19.30;72.80
9537;DHT22;4807;48.024;11.726;2022-07-10T15:09:22;19.30;75.50
9537;DHT22;4807;48.024;11.726;2022-07-10T15:12:30;19.10;75.20
9537;DHT22;4807;48.024;11.726;2022-07-10T15:15:41;19.20;75.10
9537;DHT22;4807;48.024;11.726;2022-07-10T15:18:50;19.10;75.50
9537;DHT22;4807;48.024;11.726;2022-07-10T15:21:58;19.40;74.30
9537;DHT22;4807;48.024;11.726;2022-07-10T15:25:07;19.40;77.10
9537;DHT22;4807;48.024;11.726;2022-07-10T15:28:16;19.40;75.40
9537;DHT22;4807;48.024;11.726;2022-07-10T15:31:26;19.40;76.40
9537;DHT22;4807;48.024;11.726;2022-07-10T15:34:35;19.10;74.00
9537;DHT22;4807;48.024;11.726;2022-07-10T15:37:43;19.20;78.70
9537;DHT22;4807;48.024;11.726;2022-07-10T15:40:51;20.30;77.00
9537;DHT22;4807;48.024;11.726;2022-07-10T15:44:00;19.40;73.20
9537;DHT22;4807;48.024;11.726;2022-07-10T15:47:11;19.40;74.80
9537;DHT22;4807;48.024;11.726;2022-07-10T15:50:20;19.40;73.10
9537;DHT22;4807;48.024;11.726;2022-07-10T15:53:28;19.30;73.20
9537;DHT22;4807;48.024;11.726;2022-07-10T15:56:40;19.20;74.50
9537;DHT22;4807;48.024;11.726;2022-07-10T15:59:48;19.30;73.30
9537;DHT22;4807;48.024;11.726;2022-07-10T16:02:58;19.00;72.20
9537;DHT22;4807;48.024;11.726;2022-07-10T16:06:07;18.80;72.40
9537;DHT22;4807;48.024;11.726;2022-07-10T16:09:17;18.80;73.00
9537;DHT22;4807;48.024;11.726;2022-07-10T16:12:25;19.00;73.30
9537;DHT22;4807;48.024;11.726;2022-07-10T16:15:34;19.00;72.40
9537;DHT22;4807;48.024;11.726;2022-07-10T16:18:44;18.90;71.60
9537;DHT22;4807;48.024;11.726;2022-07-10T16:21:53;18.80;72.90
9537;DHT22;4807;48.024;11.726;2022-07-10T16:25:02;18.70;73.00
9537;DHT22;4807;48.024;11.726;2022-07-10T16:28:29;18.70;72.70
9537;DHT22;4807;48.024;11.726;2022-07-10T16:31:38;18.80;71.40
9537;DHT22;4807;48.024;11.726;2022-07-10T16:34:49;18.50;70.90
9537;DHT22;4807;48.024;11.726;2022-07-10T16:37:58;18.60;72.30
9537;DHT22;4807;48.024;11.726;2022-07-10T16:41:07;18.60;72.20
9537;DHT22;4807;48.024;11.726;2022-07-10T16:44:16;18.60;70.90
9537;DHT22;4807;48.024;11.726;2022-07-10T16:47:24;18.60;72.50
9537;DHT22;4807;48.024;11.726;2022-07-10T16:50:35;18.70;71.00
9537;DHT22;4807;48.024;11.726;2022-07-10T16:53:44;19.10;70.40
9537;DHT22;4807;48.024;11.726;2022-07-10T16:57:13;20.10;66.40
9537;DHT22;4807;48.024;11.726;2022-07-10T17:00:22;21.40;64.10
9537;DHT22;4807;48.024;11.726;2022-07-10T17:03:31;21.00;63.80
9537;DHT22;4807;48.024;11.726;2022-07-10T17:06:43;20.90;63.60
9537;DHT22;4807;48.024;11.726;2022-07-10T17:09:52;20.60;63.30
9537;DHT22;4807;48.024;11.726;2022-07-10T17:13:01;20.60;64.10
9537;DHT22;4807;48.024;11.726;2022-07-10T17:16:13;19.20;62.60
9537;DHT22;4807;48.024;11.726;2022-07-10T17:19:24;21.50;62.10
9537;DHT22;4807;48.024;11.726;2022-07-10T17:22:35;22.00;60.70
9537;DHT22;4807;48.024;11.726;2022-07-10T17:25:46;22.00;62.30
9537;DHT22;4807;48.024;11.726;2022-07-10T17:28:55;22.30;60.70
9537;DHT22;4807;48.024;11.726;2022-07-10T17:32:04;22.40;61.90
9537;DHT22;4807;48.024;11.726;2022-07-10T17:35:13;22.10;62.90
9537;DHT22;4807;48.024;11.726;2022-07-10T17:38:24;22.60;59.90
9537;DHT22;4807;48.024;11.726;2022-07-10T17:41:34;22.00;61.40
9537;DHT22;4807;48.024;11.726;2022-07-10T17:44:44;21.40;61.00
9537;DHT22;4807;48.024;11.726;2022-07-10T17:47:53;20.20;64.50
9537;DHT22;4807;48.024;11.726;2022-07-10T17:51:03;19.70;67.50
9537;DHT22;4807;48.024;11.726;2022-07-10T17:54:20;19.00;67.00
9537;DHT22;4807;48.024;11.726;2022-07-10T17:57:30;18.50;70.10
9537;DHT22;4807;48.024;11.726;2022-07-10T18:00:39;18.40;71.00
9537;DHT22;4807;48.024;11.726;2022-07-10T18:03:49;18.00;72.00
9537;DHT22;4807;48.024;11.726;2022-07-10T18:07:00;17.70;72.20
9537;DHT22;4807;48.024;11.726;2022-07-10T18:10:10;17.60;73.00
9537;DHT22;4807;48.024;11.726;2022-07-10T18:13:20;17.40;73.30
9537;DHT22;4807;48.024;11.726;2022-07-10T18:16:29;17.20;74.00
9537;DHT22;4807;48.024;11.726;2022-07-10T18:19:37;17.10;74.50
9537;DHT22;4807;48.024;11.726;2022-07-10T18:22:46;17.00;73.70
9537;DHT22;4807;48.024;11.726;2022-07-10T18:25:56;16.90;74.40
9537;DHT22;4807;48.024;11.726;2022-07-10T18:29:04;16.90;74.70
9537;DHT22;4807;48.024;11.726;2022-07-10T18:32:13;16.70;75.50
9537;DHT22;4807;48.024;11.726;2022-07-10T18:35:23;16.60;76.80
9537;DHT22;4807;48.024;11.726;2022-07-10T18:38:30;16.50;76.00
9537;DHT22;4807;48.024;11.726;2022-07-10T18:41:41;16.40;76.60
9537;DHT22;4807;48.024;11.726;2022-07-10T18:44:50;16.30;77.20
9537;DHT22;4807;48.024;11.726;2022-07-10T18:48:01;16.20;76.90
9537;DHT22;4807;48.024;11.726;2022-07-10T18:51:10;16.10;77.70
9537;DHT22;4807;48.024;11.726;2022-07-10T18:54:23;15.90;78.60
9537;DHT22;4807;48.024;11.726;2022-07-10T18:57:33;15.70;79.30
9537;DHT22;4807;48.024;11.726;2022-07-10T19:00:42;15.50;81.10
9537;DHT22;4807;48.024;11.726;2022-07-10T19:03:52;15.30;82.30
9537;DHT22;4807;48.024;11.726;2022-07-10T19:07:01;15.10;82.50
9537;DHT22;4807;48.024;11.726;2022-07-10T19:10:10;15.10;83.20
9537;DHT22;4807;48.024;11.726;2022-07-10T19:13:21;15.10;83.20
9537;DHT22;4807;48.024;11.726;2022-07-10T19:16:30;14.90;83.30
9537;DHT22;4807;48.024;11.726;2022-07-10T19:19:38;14.60;84.60
9537;DHT22;4807;48.024;11.726;2022-07-10T19:22:48;14.40;85.50
9537;DHT22;4807;48.024;11.726;2022-07-10T19:25:57;14.20;87.10
9537;DHT22;4807;48.024;11.726;2022-07-10T19:29:07;14.10;86.70
9537;DHT22;4807;48.024;11.726;2022-07-10T19:32:16;14.10;87.20
9537;DHT22;4807;48.024;11.726;2022-07-10T19:35:25;14.10;88.40
9537;DHT22;4807;48.024;11.726;2022-07-10T19:38:33;14.00;88.90
9537;DHT22;4807;48.024;11.726;2022-07-10T19:41:42;13.80;89.60
9537;DHT22;4807;48.024;11.726;2022-07-10T19:44:52;14.00;89.80
9537;DHT22;4807;48.024;11.726;2022-07-10T19:48:01;13.90;89.70
9537;DHT22;4807;48.024;11.726;2022-07-10T19:51:10;11.50;88.10
9537;DHT22;4807;48.024;11.726;2022-07-10T19:54:19;11.20;88.30
9537;DHT22;4807;48.024;11.726;2022-07-10T19:57:31;13.60;88.10
9537;DHT22;4807;48.024;11.726;2022-07-10T20:00:45;13.60;89.50
9537;DHT22;4807;48.024;11.726;2022-07-10T20:03:54;13.50;88.80
9537;DHT22;4807;48.024;11.726;2022-07-10T20:07:03;13.40;89.40
9537;DHT22;4807;48.024;11.726;2022-07-10T20:10:12;13.40;90.00
9537;DHT22;4807;48.024;11.726;2022-07-10T20:13:23;13.10;90.70
9537;DHT22;4807;48.024;11.726;2022-07-10T20:16:34;12.90;91.30
9537;DHT22;4807;48.024;11.726;2022-07-10T20:19:45;12.70;91.90
9537;DHT22;4807;48.024;11.726;2022-07-10T20:22:54;12.60;92.00
9537;DHT22;4807;48.024;11.726;2022-07-10T20:26:06;12.60;91.80
9537;DHT22;4807;48.024;11.726;2022-07-10T20:29:14;12.60;92.20
9537;DHT22;4807;48.024;11.726;2022-07-10T20:32:36;12.40;92.10
9537;DHT22;4807;48.024;11.726;2022-07-10T20:35:45;12.30;92.70